Terminal Aerodrome Forecast
Issued by NWS

Home | Current Version | Previous Version | Text Only | Print | Product List | Glossary On
Versions: 1 2 3 4 5 6 7 8 9 10 11 12 13 14 15 16 17 18 19 20 21 22 23 24 25 26 27 28 29 30
000
FTUS45 KGJT 220546 AAA
TAFMTJ
TAF AMD
KMTJ 220546Z 2206/2306 13003KT P6SM -SHRA SCT050 BKN070
      TEMPO 2206/2210 4SM TSRA BR SCT035 BKN050CB
     FM221100 18005KT P6SM VCSH SCT070 BKN090
     FM221900 30008KT P6SM SCT090 SCT200
     FM230200 14007KT P6SM SCT100=

USA.gov is the U.S. government's official web portal to all federal, state and local government web resources and services.